Time;durP1;ratioP1;P1;durP2;ratioP2;P2;SDS_P1;SDS_P2;PMS_P1;PMS_P2;Temp;Humidity;BMP_temperature;BMP_pressure;BME280_temperature;BME280_humidity;BME280_pressure;Samples;Min_cycle;Max_cycle;Signal;HPM_P1;HPM_P2
2022/10/03 00:00:59;;;;;;;10.65;9.95;;;;;;;;;;4984544;28;20043;-68
2022/10/03 00:03:42;;;;;;;10.43;9.73;;;;;;;;;;4979028;28;20030;-67
2022/10/03 00:06:26;;;;;;;11.15;10.23;;;;;;;;;;4983028;28;20081;-67
2022/10/03 00:09:03;;;;;;;12.02;11.23;;;;;;;;;;4983323;28;20352;-68
2022/10/03 00:11:41;;;;;;;12.38;11.45;;;;;;;;;;4984204;28;20045;-68
2022/10/03 00:14:17;;;;;;;11.10;10.38;;;;;;;;;;4983021;28;20094;-69
2022/10/03 00:17:07;;;;;;;16.25;14.93;;;;;;;;;;4981083;28;20069;-68
2022/10/03 00:19:42;;;;;;;12.32;11.23;;;;;;;;;;4981927;28;20043;-68
2022/10/03 00:22:20;;;;;;;10.18;9.48;;;;;;;;;;4983860;28;20047;-68
2022/10/03 00:25:01;;;;;;;11.18;10.38;;;;;;;;;;4986753;28;20162;-68
2022/10/03 00:27:49;;;;;;;9.65;9.05;;;;;;;;;;4984400;28;20026;-68
2022/10/03 00:30:18;;;;;;;8.82;8.23;;;;;;;;;;4985387;28;20085;-68
2022/10/03 00:32:47;;;;;;;9.95;9.25;;;;;;;;;;4983483;28;20019;-68
2022/10/03 00:35:31;;;;;;;9.85;9.23;;;;;;;;;;4982140;28;20072;-68
2022/10/03 00:38:02;;;;;;;11.40;10.50;;;;;;;;;;4983372;28;20130;-68
2022/10/03 00:40:46;;;;;;;12.60;11.55;;;;;;;;;;4980315;28;20027;-68
2022/10/03 00:43:36;;;;;;;11.25;10.40;;;;;;;;;;4983852;28;20034;-68
2022/10/03 00:46:19;;;;;;;9.85;9.25;;;;;;;;;;4979903;28;20027;-68
2022/10/03 00:49:03;;;;;;;11.00;10.27;;;;;;;;;;4981776;28;20543;-68
2022/10/03 00:51:37;;;;;;;13.10;12.15;;;;;;;;;;4984550;28;20066;-68
2022/10/03 00:54:30;;;;;;;12.30;11.35;;;;;;;;;;4983711;28;20460;-68
2022/10/03 00:57:14;;;;;;;10.68;9.90;;;;;;;;;;4980410;28;20046;-68
2022/10/03 00:59:54;;;;;;;10.27;9.48;;;;;;;;;;4982440;28;20034;-68
2022/10/03 01:02:33;;;;;;;8.93;8.10;;;;;;;;;;4982536;28;20567;-67
2022/10/03 01:05:12;;;;;;;10.27;9.48;;;;;;;;;;4980904;28;20042;-68
2022/10/03 01:08:29;;;;;;;10.30;9.60;;;;;;;;;;4982174;28;20303;-68
2022/10/03 01:11:03;;;;;;;9.13;8.52;;;;;;;;;;4960010;28;20039;-68
2022/10/03 01:13:50;;;;;;;10.13;9.35;;;;;;;;;;4980280;28;20047;-68
2022/10/03 01:16:36;;;;;;;8.90;8.20;;;;;;;;;;4981864;28;20031;-68
2022/10/03 01:19:20;;;;;;;8.73;8.13;;;;;;;;;;4985064;28;20468;-67
2022/10/03 01:22:16;;;;;;;8.55;7.95;;;;;;;;;;4982996;28;20023;-68
2022/10/03 01:24:53;;;;;;;8.10;7.55;;;;;;;;;;4982163;28;20034;-67
2022/10/03 01:30:50;;;;;;;7.38;6.88;;;;;;;;;;4983507;28;20034;-68
2022/10/03 01:33:33;;;;;;;8.05;7.55;;;;;;;;;;4982935;28;20034;-68
2022/10/03 01:36:02;;;;;;;8.50;7.90;;;;;;;;;;4982714;28;20045;-67
2022/10/03 01:38:43;;;;;;;8.70;8.10;;;;;;;;;;4981616;28;20022;-67
2022/10/03 01:41:23;;;;;;;7.43;6.90;;;;;;;;;;4979206;28;20042;-66
2022/10/03 01:43:59;;;;;;;8.98;8.38;;;;;;;;;;4984625;28;20035;-67
2022/10/03 01:46:38;;;;;;;8.50;7.90;;;;;;;;;;4980863;28;20042;-67
2022/10/03 01:49:37;;;;;;;9.07;8.48;;;;;;;;;;4980723;28;20066;-67
2022/10/03 01:52:05;;;;;;;7.95;7.40;;;;;;;;;;4988160;28;20039;-66
2022/10/03 01:54:43;;;;;;;8.38;7.78;;;;;;;;;;4982345;28;20038;-67
2022/10/03 01:57:14;;;;;;;8.02;7.43;;;;;;;;;;4982834;28;20038;-66
2022/10/03 01:59:41;;;;;;;;;;;;;;;;;;4976739;28;20039;-67
2022/10/03 02:02:29;;;;;;;7.72;7.18;;;;;;;;;;4981815;28;19992;-67
2022/10/03 02:05:03;;;;;;;8.15;7.63;;;;;;;;;;4981317;28;20048;-67
2022/10/03 02:07:41;;;;;;;8.43;7.93;;;;;;;;;;4982989;28;20127;-67
2022/10/03 02:10:30;;;;;;;7.97;7.47;;;;;;;;;;4979054;28;20382;-67
2022/10/03 02:13:22;;;;;;;8.00;7.50;;;;;;;;;;4981517;28;20027;-66
2022/10/03 02:16:07;;;;;;;8.32;7.75;;;;;;;;;;4994600;28;20369;-67
2022/10/03 02:18:43;;;;;;;7.93;7.43;;;;;;;;;;4980612;28;20112;-67
2022/10/03 02:21:17;;;;;;;7.30;6.80;;;;;;;;;;4981354;28;20042;-66
2022/10/03 02:23:45;;;;;;;7.50;7.00;;;;;;;;;;4980721;28;20290;-66
2022/10/03 02:26:30;;;;;;;8.00;7.47;;;;;;;;;;4983289;28;20027;-66
2022/10/03 02:29:19;;;;;;;7.60;7.10;;;;;;;;;;4981848;28;20062;-66
2022/10/03 02:32:32;;;;;;;7.82;7.22;;;;;;;;;;4980689;28;20093;-66
2022/10/03 02:35:01;;;;;;;7.05;6.55;;;;;;;;;;4978247;28;20038;-66
2022/10/03 02:37:45;;;;;;;7.13;6.63;;;;;;;;;;4979757;28;20056;-66
2022/10/03 02:40:29;;;;;;;7.72;7.22;;;;;;;;;;4981071;28;20027;-67
2022/10/03 02:43:15;;;;;;;7.97;7.38;;;;;;;;;;4980791;28;20050;-67
2022/10/03 02:46:02;;;;;;;6.45;6.03;;;;;;;;;;4979241;28;20027;-66
2022/10/03 02:49:17;;;;;;;7.43;6.93;;;;;;;;;;4981931;28;20097;-64
2022/10/03 02:52:01;;;;;;;8.50;7.80;;;;;;;;;;4978708;28;20552;-64
2022/10/03 02:54:54;;;;;;;6.70;6.20;;;;;;;;;;4978640;28;20031;-63
2022/10/03 02:58:00;;;;;;;6.85;6.35;;;;;;;;;;4981259;28;20078;-64
2022/10/03 03:00:58;;;;;;;6.93;6.43;;;;;;;;;;4987653;28;20026;-63
2022/10/03 03:03:42;;;;;;;7.80;7.20;;;;;;;;;;4969065;28;20046;-64
2022/10/03 03:06:28;;;;;;;7.50;7.00;;;;;;;;;;4984681;28;20045;-63
2022/10/03 03:09:31;;;;;;;7.38;6.88;;;;;;;;;;4984849;28;20113;-64
2022/10/03 03:11:58;;;;;;;7.65;7.15;;;;;;;;;;4986460;28;20401;-64
2022/10/03 03:15:00;;;;;;;7.95;7.38;;;;;;;;;;4986364;28;20417;-64
2022/10/03 03:17:35;;;;;;;7.47;6.97;;;;;;;;;;4983293;28;20136;-64
2022/10/03 03:20:27;;;;;;;8.00;7.40;;;;;;;;;;4982965;28;20034;-64
2022/10/03 03:23:15;;;;;;;7.03;6.53;;;;;;;;;;4983901;28;20031;-64
2022/10/03 03:25:52;;;;;;;7.93;7.32;;;;;;;;;;4987464;28;20026;-64
2022/10/03 03:28:33;;;;;;;7.20;6.70;;;;;;;;;;4986853;28;20121;-65
2022/10/03 03:31:15;;;;;;;6.80;6.30;;;;;;;;;;4984821;28;20468;-64
2022/10/03 03:33:43;;;;;;;7.00;6.50;;;;;;;;;;4984241;28;20062;-64
2022/10/03 03:36:31;;;;;;;7.32;6.82;;;;;;;;;;4986143;28;20514;-64
2022/10/03 03:39:18;;;;;;;7.45;6.95;;;;;;;;;;5000292;28;20129;-64
2022/10/03 03:42:03;;;;;;;7.20;6.68;;;;;;;;;;4981011;28;20124;-63
2022/10/03 03:45:10;;;;;;;7.25;6.75;;;;;;;;;;4981562;28;20329;-64
2022/10/03 03:47:48;;;;;;;8.27;7.72;;;;;;;;;;4980644;28;20477;-64
2022/10/03 03:50:35;;;;;;;7.80;7.30;;;;;;;;;;4984754;28;20483;-64
2022/10/03 03:53:19;;;;;;;7.18;6.68;;;;;;;;;;4979786;28;20030;-64
2022/10/03 03:56:06;;;;;;;8.27;7.68;;;;;;;;;;4982743;28;20030;-62
2022/10/03 03:58:53;;;;;;;7.32;6.82;;;;;;;;;;4982468;28;20121;-63
2022/10/03 04:01:42;;;;;;;8.40;7.80;;;;;;;;;;4982262;28;20038;-64
2022/10/03 04:04:27;;;;;;;8.02;7.45;;;;;;;;;;4985336;28;20043;-64
2022/10/03 04:06:55;;;;;;;8.02;7.43;;;;;;;;;;4982398;28;20416;-64
2022/10/03 04:10:05;;;;;;;9.52;8.73;;;;;;;;;;4984820;28;20380;-64
2022/10/03 04:12:49;;;;;;;6.88;6.38;;;;;;;;;;4982561;28;20520;-64
2022/10/03 04:15:37;;;;;;;10.48;7.40;;;;;;;;;;4997861;28;20049;-64
2022/10/03 04:21:26;;;;;;;8.07;7.57;;;;;;;;;;4984420;28;20023;-64
2022/10/03 04:24:20;;;;;;;8.70;8.10;;;;;;;;;;4982452;28;20113;-64
2022/10/03 04:26:51;;;;;;;8.70;8.10;;;;;;;;;;4980746;28;20023;-64
2022/10/03 04:29:20;;;;;;;;;;;;;;;;;;4980325;28;20038;-64
2022/10/03 04:32:12;;;;;;;7.82;7.22;;;;;;;;;;4997000;28;20122;-64
2022/10/03 04:34:43;;;;;;;8.43;7.82;;;;;;;;;;4988051;28;20504;-64
2022/10/03 04:37:19;;;;;;;;;;;;;;;;;;4981050;28;20046;-64
2022/10/03 04:40:19;;;;;;;7.82;7.25;;;;;;;;;;4983200;28;19957;-64
2022/10/03 04:42:47;;;;;;;7.15;6.65;;;;;;;;;;4981828;28;20468;-64
2022/10/03 04:45:23;;;;;;;8.88;8.18;;;;;;;;;;4980720;28;20042;-63
2022/10/03 04:47:58;;;;;;;8.30;7.70;;;;;;;;;;4984442;28;20174;-64
2022/10/03 04:50:35;;;;;;;8.13;7.63;;;;;;;;;;4986108;28;20114;-63
2022/10/03 04:53:06;;;;;;;14.35;8.23;;;;;;;;;;4984980;28;20043;-64
2022/10/03 04:55:47;;;;;;;8.20;7.60;;;;;;;;;;4981992;28;20035;-64
2022/10/03 04:58:23;;;;;;;7.63;7.13;;;;;;;;;;4984090;28;20415;-64
2022/10/03 05:01:13;;;;;;;7.70;7.20;;;;;;;;;;4981968;28;20037;-63
2022/10/03 05:03:42;;;;;;;7.85;7.35;;;;;;;;;;4980681;28;20073;-65
2022/10/03 05:06:34;;;;;;;7.43;6.82;;;;;;;;;;4980952;28;20704;-63
2022/10/03 05:09:18;;;;;;;7.80;7.30;;;;;;;;;;4980705;28;20104;-65
2022/10/03 05:12:13;;;;;;;7.78;7.25;;;;;;;;;;4980842;28;20479;-65
2022/10/03 05:14:42;;;;;;;7.85;7.28;;;;;;;;;;4981464;28;20054;-66
2022/10/03 05:17:28;;;;;;;8.82;8.23;;;;;;;;;;4982386;28;20038;-66
2022/10/03 05:20:15;;;;;;;7.63;7.05;;;;;;;;;;4980683;28;20066;-67
2022/10/03 05:22:59;;;;;;;8.25;7.65;;;;;;;;;;4984914;28;20445;-65
2022/10/03 05:25:30;;;;;;;8.25;7.65;;;;;;;;;;4999595;28;20026;-66
2022/10/03 05:28:21;;;;;;;8.52;7.93;;;;;;;;;;4981456;28;20034;-65
2022/10/03 05:31:23;;;;;;;;;;;;;;;;;;4982363;28;20040;-66
2022/10/03 05:33:59;;;;;;;7.72;7.13;;;;;;;;;;4966493;28;20276;-66
2022/10/03 05:36:51;;;;;;;8.95;8.32;;;;;;;;;;4979188;28;20445;-66
2022/10/03 05:39:29;;;;;;;7.97;7.47;;;;;;;;;;4981705;28;20501;-66
2022/10/03 05:42:09;;;;;;;8.25;7.63;;;;;;;;;;4980534;28;20536;-66
2022/10/03 05:44:42;;;;;;;7.70;7.13;;;;;;;;;;4985285;28;20443;-66
2022/10/03 05:47:43;;;;;;;8.05;7.55;;;;;;;;;;4987000;28;20181;-66
2022/10/03 05:50:32;;;;;;;7.80;7.30;;;;;;;;;;4981859;28;20461;-66
2022/10/03 05:53:07;;;;;;;8.40;7.78;;;;;;;;;;4981829;28;20031;-68
2022/10/03 05:55:51;;;;;;;8.40;7.60;;;;;;;;;;4982264;28;20117;-67
2022/10/03 05:58:22;;;;;;;7.30;6.80;;;;;;;;;;4982252;28;20515;-67
2022/10/03 06:01:06;;;;;;;;;;;;;;;;;;4985401;28;20137;-67
2022/10/03 06:04:07;;;;;;;7.50;6.85;;;;;;;;;;4984767;28;20008;-67
2022/10/03 06:07:04;;;;;;;7.45;6.95;;;;;;;;;;4977838;28;20194;-67
2022/10/03 06:10:03;;;;;;;7.25;6.75;;;;;;;;;;4981348;28;20483;-66
2022/10/03 06:12:43;;;;;;;7.05;6.55;;;;;;;;;;4983767;28;20040;-66
2022/10/03 06:15:25;;;;;;;7.40;6.90;;;;;;;;;;4983365;28;20046;-66
2022/10/03 06:18:00;;;;;;;7.18;6.68;;;;;;;;;;4999008;28;20030;-66
2022/10/03 06:20:53;;;;;;;7.22;6.72;;;;;;;;;;4982393;28;20022;-65
2022/10/03 06:23:41;;;;;;;7.18;6.68;;;;;;;;;;4982514;28;20060;-65
2022/10/03 06:26:35;;;;;;;8.60;8.00;;;;;;;;;;4978331;28;20457;-65
2022/10/03 06:29:06;;;;;;;7.88;7.38;;;;;;;;;;4981581;28;20041;-66
2022/10/03 06:31:40;;;;;;;;;;;;;;;;;;4981643;28;20360;-66
2022/10/03 06:34:20;;;;;;;7.22;6.72;;;;;;;;;;4977377;28;19910;-66
2022/10/03 06:37:13;;;;;;;8.97;8.27;;;;;;;;;;4980771;28;20062;-66
2022/10/03 06:40:19;;;;;;;8.85;8.23;;;;;;;;;;4984804;28;20034;-66
2022/10/03 06:42:53;;;;;;;8.25;7.65;;;;;;;;;;4982374;28;20129;-65
2022/10/03 06:45:37;;;;;;;10.40;9.70;;;;;;;;;;4981369;28;20046;-66
2022/10/03 06:48:21;;;;;;;9.32;8.73;;;;;;;;;;4980525;28;20027;-66
2022/10/03 06:50:58;;;;;;;8.48;7.88;;;;;;;;;;4982628;28;20096;-66
2022/10/03 06:53:32;;;;;;;9.75;9.02;;;;;;;;;;4977067;28;20035;-66
2022/10/03 06:56:30;;;;;;;9.20;8.60;;;;;;;;;;4980390;28;20487;-67
2022/10/03 06:59:26;;;;;;;9.23;8.52;;;;;;;;;;4976472;28;20827;-66
2022/10/03 07:02:14;;;;;;;9.43;8.73;;;;;;;;;;4985287;28;20064;-65
2022/10/03 07:04:54;;;;;;;9.70;8.98;;;;;;;;;;4977999;28;20062;-68
2022/10/03 07:07:36;;;;;;;9.77;9.07;;;;;;;;;;4980763;28;20051;-65
2022/10/03 07:10:39;;;;;;;8.88;8.27;;;;;;;;;;4979091;28;20069;-65
2022/10/03 07:13:22;;;;;;;9.95;9.25;;;;;;;;;;4978694;28;20042;-66
2022/10/03 07:15:56;;;;;;;10.82;10.02;;;;;;;;;;4979497;28;20047;-65
2022/10/03 07:18:37;;;;;;;9.75;9.10;;;;;;;;;;4980309;28;20030;-66
2022/10/03 07:21:30;;;;;;;10.80;10.05;;;;;;;;;;4980697;28;20037;-65
2022/10/03 07:24:02;;;;;;;11.55;10.70;;;;;;;;;;4980839;28;20049;-67
2022/10/03 07:26:55;;;;;;;13.23;12.35;;;;;;;;;;4994030;28;20431;-68
2022/10/03 07:29:49;;;;;;;12.00;11.20;;;;;;;;;;4979215;28;20031;-68
2022/10/03 07:32:20;;;;;;;14.57;12.93;;;;;;;;;;4981186;28;20034;-68
2022/10/03 07:35:06;;;;;;;11.82;10.95;;;;;;;;;;4979767;28;20038;-65
2022/10/03 07:41:31;;;;;;;11.27;10.48;;;;;;;;;;4979342;28;20038;-65
2022/10/03 07:44:16;;;;;;;9.85;9.15;;;;;;;;;;4979161;28;20399;-65
2022/10/03 07:47:00;;;;;;;9.32;8.63;;;;;;;;;;4978372;28;20046;-71
2022/10/03 07:49:47;;;;;;;11.70;9.95;;;;;;;;;;4982362;28;20031;-71
2022/10/03 07:52:41;;;;;;;9.90;9.10;;;;;;;;;;4983545;28;20665;-72
2022/10/03 07:55:23;;;;;;;9.00;8.30;;;;;;;;;;4979007;28;20069;-70
2022/10/03 07:58:07;;;;;;;10.50;9.73;;;;;;;;;;4977577;28;20069;-73
2022/10/03 08:01:04;;;;;;;10.55;8.95;;;;;;;;;;4980889;28;20061;-71
2022/10/03 08:03:48;;;;;;;9.38;8.60;;;;;;;;;;4979197;28;20396;-73
2022/10/03 08:06:17;;;;;;;10.38;9.52;;;;;;;;;;4979615;28;20416;-72
2022/10/03 08:09:24;;;;;;;9.27;8.68;;;;;;;;;;4981487;28;20034;-72
2022/10/03 08:12:14;;;;;;;12.30;11.43;;;;;;;;;;4984342;28;20645;-74
2022/10/03 08:14:45;;;;;;;12.27;11.48;;;;;;;;;;4980398;28;20038;-73
2022/10/03 08:17:29;;;;;;;13.45;12.57;;;;;;;;;;4981939;28;20093;-71
2022/10/03 08:20:12;;;;;;;11.23;10.43;;;;;;;;;;4978513;28;20039;-73
2022/10/03 08:22:56;;;;;;;11.55;10.75;;;;;;;;;;4977464;28;20033;-73
2022/10/03 08:25:29;;;;;;;11.35;10.65;;;;;;;;;;4980813;28;20037;-73
2022/10/03 08:28:29;;;;;;;11.63;10.80;;;;;;;;;;4981077;28;20090;-71
2022/10/03 08:31:12;;;;;;;11.10;10.27;;;;;;;;;;4984619;28;21413;-74
2022/10/03 08:33:43;;;;;;;12.95;11.95;;;;;;;;;;4982983;28;20033;-72
2022/10/03 08:36:31;;;;;;;14.27;13.20;;;;;;;;;;4981438;28;20031;-71
2022/10/03 08:39:34;;;;;;;15.73;14.73;;;;;;;;;;4980125;28;20045;-71
2022/10/03 08:42:16;;;;;;;14.18;13.27;;;;;;;;;;4996230;28;20041;-71
2022/10/03 08:44:52;;;;;;;15.23;14.25;;;;;;;;;;4981124;28;20658;-71
2022/10/03 08:47:21;;;;;;;15.77;14.82;;;;;;;;;;4981188;28;20041;-71
2022/10/03 08:50:11;;;;;;;19.50;18.40;;;;;;;;;;4980866;28;20034;-72
2022/10/03 08:53:11;;;;;;;19.17;18.08;;;;;;;;;;4979789;28;20058;-71
2022/10/03 08:56:06;;;;;;;19.30;18.23;;;;;;;;;;4977801;28;20038;-72
2022/10/03 08:58:56;;;;;;;20.33;19.20;;;;;;;;;;4977823;28;20018;-69
2022/10/03 09:01:28;;;;;;;18.67;17.58;;;;;;;;;;4981932;28;20026;-69
2022/10/03 09:04:02;;;;;;;19.70;18.60;;;;;;;;;;4980623;28;20082;-69
2022/10/03 09:06:49;;;;;;;22.42;20.92;;;;;;;;;;4981084;28;20025;-68
2022/10/03 09:09:34;;;;;;;20.42;19.05;;;;;;;;;;4979642;28;20074;-72
2022/10/03 09:12:21;;;;;;;17.50;16.50;;;;;;;;;;4977899;28;20038;-72
2022/10/03 09:15:20;;;;;;;13.65;12.77;;;;;;;;;;4974847;28;20576;-72
2022/10/03 09:18:15;;;;;;;13.88;12.88;;;;;;;;;;4977480;28;20041;-73
2022/10/03 09:20:40;;;;;;;16.75;15.30;;;;;;;;;;4978423;28;20035;-72
2022/10/03 09:23:30;;;;;;;12.77;11.88;;;;;;;;;;4977072;28;20536;-71
2022/10/03 09:26:17;;;;;;;11.63;10.73;;;;;;;;;;4980015;28;20033;-72
2022/10/03 09:29:22;;;;;;;11.77;11.07;;;;;;;;;;4981239;28;20091;-73
2022/10/03 09:32:28;;;;;;;11.38;10.68;;;;;;;;;;4983269;28;20034;-72
2022/10/03 09:35:05;;;;;;;10.80;10.10;;;;;;;;;;4985898;28;20062;-72
2022/10/03 09:38:04;;;;;;;10.63;9.95;;;;;;;;;;4979019;28;20100;-72
2022/10/03 09:40:55;;;;;;;10.68;9.82;;;;;;;;;;4985203;28;20022;-71
2022/10/03 09:43:55;;;;;;;9.37;8.77;;;;;;;;;;4979281;28;20027;-72
2022/10/03 09:46:33;;;;;;;8.73;8.10;;;;;;;;;;4978533;28;20267;-71
2022/10/03 09:49:26;;;;;;;10.65;9.82;;;;;;;;;;4977331;28;20066;-70
2022/10/03 09:52:13;;;;;;;9.85;9.18;;;;;;;;;;4980666;28;20034;-72
2022/10/03 09:54:51;;;;;;;9.00;8.40;;;;;;;;;;4982036;28;20118;-74
2022/10/03 09:57:17;;;;;;;9.43;8.82;;;;;;;;;;4976413;28;20389;-72
2022/10/03 10:00:12;;;;;;;11.05;10.23;;;;;;;;;;4980470;28;20030;-71
2022/10/03 10:03:15;;;;;;;8.85;8.25;;;;;;;;;;4970619;28;20077;-70
2022/10/03 10:06:02;;;;;;;9.90;9.20;;;;;;;;;;4975896;28;20029;-71
2022/10/03 10:08:55;;;;;;;9.25;8.55;;;;;;;;;;4974437;28;20026;-71
2022/10/03 10:11:31;;;;;;;8.90;8.30;;;;;;;;;;4976983;28;20030;-70
2022/10/03 10:14:18;;;;;;;8.30;7.70;;;;;;;;;;4976445;28;20030;-72
2022/10/03 10:17:38;;;;;;;7.60;7.10;;;;;;;;;;4975528;28;20500;-67
2022/10/03 10:20:27;;;;;;;7.70;7.18;;;;;;;;;;4952076;28;20050;-69
2022/10/03 10:23:24;;;;;;;7.63;7.13;;;;;;;;;;4972679;28;20070;-70
2022/10/03 10:26:14;;;;;;;8.20;7.60;;;;;;;;;;4974195;28;20607;-70
2022/10/03 10:28:55;;;;;;;7.60;7.10;;;;;;;;;;4974667;28;20038;-70
2022/10/03 10:31:55;;;;;;;7.78;7.28;;;;;;;;;;4981670;28;20134;-71
2022/10/03 10:34:45;;;;;;;8.60;8.00;;;;;;;;;;4974197;28;20035;-70
2022/10/03 10:37:38;;;;;;;8.48;7.70;;;;;;;;;;4974645;28;20018;-69
2022/10/03 10:40:25;;;;;;;7.18;6.68;;;;;;;;;;4976646;28;20093;-66
2022/10/03 10:43:12;;;;;;;8.57;7.97;;;;;;;;;;4974144;28;20046;-70
2022/10/03 10:46:03;;;;;;;7.82;7.22;;;;;;;;;;4973745;28;20031;-68
2022/10/03 10:49:13;;;;;;;8.25;7.65;;;;;;;;;;4988861;28;20405;-70
2022/10/03 10:52:02;;;;;;;8.68;7.97;;;;;;;;;;4974556;28;20030;-70
2022/10/03 10:54:28;;;;;;;8.23;7.65;;;;;;;;;;4971771;28;20031;-71
2022/10/03 10:57:09;;;;;;;11.23;10.43;;;;;;;;;;4973669;28;20038;-70
2022/10/03 10:59:53;;;;;;;11.27;10.48;;;;;;;;;;4974543;28;20031;-71
2022/10/03 11:02:39;;;;;;;12.40;11.60;;;;;;;;;;4974532;28;20372;-70
2022/10/03 11:05:28;;;;;;;10.82;10.02;;;;;;;;;;4977726;28;20030;-70
2022/10/03 11:08:18;;;;;;;10.27;9.68;;;;;;;;;;4971874;28;20042;-68
2022/10/03 11:10:56;;;;;;;12.38;11.60;;;;;;;;;;4975313;28;20022;-68
2022/10/03 11:13:40;;;;;;;10.77;10.10;;;;;;;;;;4974360;28;20019;-69
2022/10/03 11:16:24;;;;;;;14.55;13.35;;;;;;;;;;4979791;28;20150;-68
2022/10/03 11:19:10;;;;;;;15.45;14.05;;;;;;;;;;4978975;28;20034;-69
2022/10/03 11:22:03;;;;;;;13.02;12.25;;;;;;;;;;4978531;28;20034;-69
2022/10/03 11:24:37;;;;;;;17.13;12.02;;;;;;;;;;4981920;28;20083;-68
2022/10/03 11:27:30;;;;;;;13.55;12.70;;;;;;;;;;4981875;28;20572;-68
2022/10/03 11:30:33;;;;;;;13.05;12.25;;;;;;;;;;4979872;28;20030;-67
2022/10/03 11:33:25;;;;;;;13.63;12.82;;;;;;;;;;4981276;28;20034;-68
2022/10/03 11:36:22;;;;;;;13.38;12.57;;;;;;;;;;4992707;28;20605;-68
2022/10/03 11:39:10;;;;;;;12.45;11.75;;;;;;;;;;4989141;28;20034;-68
2022/10/03 11:41:51;;;;;;;13.52;12.68;;;;;;;;;;4985744;28;20035;-68
2022/10/03 11:44:16;;;;;;;14.05;13.15;;;;;;;;;;4983657;28;20141;-68
2022/10/03 11:47:18;;;;;;;13.88;12.93;;;;;;;;;;4983108;28;20038;-67
2022/10/03 11:50:20;;;;;;;12.82;11.75;;;;;;;;;;4982076;28;20070;-67
2022/10/03 11:52:51;;;;;;;15.70;14.57;;;;;;;;;;4981409;28;20484;-67
2022/10/03 11:55:28;;;;;;;14.15;13.25;;;;;;;;;;4982871;28;20051;-66
2022/10/03 11:58:23;;;;;;;14.65;13.77;;;;;;;;;;4982609;28;20133;-68
2022/10/03 12:01:10;;;;;;;14.80;13.80;;;;;;;;;;4966434;28;20112;-68
2022/10/03 12:03:46;;;;;;;12.15;11.35;;;;;;;;;;4979433;28;20031;-66
2022/10/03 12:09:24;;;;;;;15.48;12.48;;;;;;;;;;4984743;28;20035;-69
2022/10/03 12:11:57;;;;;;;11.70;11.00;;;;;;;;;;4980285;28;20546;-67
2022/10/03 12:14:27;;;;;;;14.00;13.20;;;;;;;;;;4983247;28;20226;-69
2022/10/03 12:17:05;;;;;;;13.65;12.77;;;;;;;;;;4981781;28;20030;-68
2022/10/03 12:19:40;;;;;;;13.32;12.52;;;;;;;;;;4979891;28;20057;-67
2022/10/03 12:22:29;;;;;;;12.27;11.57;;;;;;;;;;4980670;28;20405;-68
2022/10/03 12:25:22;;;;;;;14.63;13.63;;;;;;;;;;4992637;28;20113;-68
2022/10/03 12:28:23;;;;;;;12.73;11.95;;;;;;;;;;4980227;28;20049;-68
2022/10/03 12:30:54;;;;;;;12.13;11.43;;;;;;;;;;4986707;28;20034;-68
2022/10/03 12:33:27;;;;;;;13.35;12.55;;;;;;;;;;4977925;28;20041;-68
2022/10/03 12:36:08;;;;;;;14.65;13.75;;;;;;;;;;4975680;28;20034;-67
2022/10/03 12:38:48;;;;;;;12.45;11.65;;;;;;;;;;4976942;28;20066;-67
2022/10/03 12:41:35;;;;;;;13.93;12.93;;;;;;;;;;4977402;28;20101;-67
2022/10/03 12:44:09;;;;;;;22.42;12.52;;;;;;;;;;4977148;28;20040;-67
2022/10/03 12:46:45;;;;;;;13.45;12.55;;;;;;;;;;4981974;28;20030;-66
2022/10/03 12:49:23;;;;;;;13.98;13.10;;;;;;;;;;4991634;28;20026;-66
2022/10/03 12:51:57;;;;;;;12.43;11.63;;;;;;;;;;4980163;28;20046;-66
2022/10/03 12:54:47;;;;;;;12.40;11.65;;;;;;;;;;4976791;28;20664;-67
2022/10/03 12:57:21;;;;;;;11.00;10.30;;;;;;;;;;4978348;28;20468;-67
2022/10/03 12:59:58;;;;;;;13.02;12.23;;;;;;;;;;4981336;28;20578;-67
2022/10/03 13:02:31;;;;;;;13.50;12.70;;;;;;;;;;4978230;28;20162;-68
2022/10/03 13:05:17;;;;;;;13.85;12.95;;;;;;;;;;4982150;28;20520;-66
2022/10/03 13:07:55;;;;;;;11.68;10.98;;;;;;;;;;4978958;28;20038;-66
2022/10/03 13:10:36;;;;;;;12.88;12.07;;;;;;;;;;4978317;28;20038;-66
2022/10/03 13:13:06;;;;;;;12.50;11.68;;;;;;;;;;4979249;28;20457;-66
2022/10/03 13:15:40;;;;;;;12.50;11.70;;;;;;;;;;4977830;28;20548;-66
2022/10/03 13:18:31;;;;;;;12.70;11.90;;;;;;;;;;4978086;28;20074;-66
2022/10/03 13:21:10;;;;;;;12.77;11.98;;;;;;;;;;4976556;28;20121;-68
2022/10/03 13:23:45;;;;;;;13.20;12.25;;;;;;;;;;4979558;28;20416;-66
2022/10/03 13:26:15;;;;;;;11.77;11.00;;;;;;;;;;4994057;28;20068;-65
2022/10/03 13:28:43;;;;;;;;;;;;;;;;;;4978285;28;20113;-67
2022/10/03 13:31:13;;;;;;;11.52;10.82;;;;;;;;;;4974846;28;20120;-66
2022/10/03 13:33:49;;;;;;;12.95;12.15;;;;;;;;;;4977229;28;20098;-66
2022/10/03 13:36:28;;;;;;;12.25;11.52;;;;;;;;;;4980466;28;20026;-65
2022/10/03 13:39:18;;;;;;;13.75;12.95;;;;;;;;;;4979230;28;20044;-66
2022/10/03 13:42:12;;;;;;;11.90;11.20;;;;;;;;;;4977775;28;20109;-66
2022/10/03 13:44:43;;;;;;;17.83;11.25;;;;;;;;;;4976538;28;20423;-66
2022/10/03 13:47:30;;;;;;;13.75;12.95;;;;;;;;;;4975028;28;20058;-66
2022/10/03 13:49:57;;;;;;;11.50;10.80;;;;;;;;;;4978009;28;20480;-66
2022/10/03 13:52:34;;;;;;;12.55;11.65;;;;;;;;;;4976069;28;20034;-66
2022/10/03 13:55:27;;;;;;;12.95;12.15;;;;;;;;;;4977791;28;20702;-66
2022/10/03 13:58:14;;;;;;;12.20;11.40;;;;;;;;;;4975832;28;20110;-66
2022/10/03 14:01:12;;;;;;;13.15;12.35;;;;;;;;;;4981536;28;20062;-65
2022/10/03 14:04:15;;;;;;;12.95;12.15;;;;;;;;;;4978992;28;20401;-66
2022/10/03 14:07:12;;;;;;;13.15;12.35;;;;;;;;;;4975351;28;20039;-66
2022/10/03 14:09:56;;;;;;;12.35;11.55;;;;;;;;;;4979252;28;20030;-66
2022/10/03 14:12:34;;;;;;;13.27;12.43;;;;;;;;;;4980274;28;20033;-66
2022/10/03 14:15:14;;;;;;;13.82;12.93;;;;;;;;;;4975550;28;20042;-67
2022/10/03 14:17:58;;;;;;;13.05;12.25;;;;;;;;;;4979141;28;20477;-66
2022/10/03 14:20:38;;;;;;;13.98;13.07;;;;;;;;;;4976174;28;20043;-66
2022/10/03 14:23:15;;;;;;;14.10;12.65;;;;;;;;;;4981113;28;20339;-66
2022/10/03 14:26:16;;;;;;;12.88;12.10;;;;;;;;;;4977499;28;20042;-66
2022/10/03 14:28:46;;;;;;;;;;;;;;;;;;4965450;28;20058;-66
2022/10/03 14:31:21;;;;;;;12.23;11.52;;;;;;;;;;4977212;28;20012;-65
2022/10/03 14:34:06;;;;;;;13.00;12.20;;;;;;;;;;4978751;28;20093;-66
2022/10/03 14:36:36;;;;;;;13.77;12.98;;;;;;;;;;4976315;28;20027;-66
2022/10/03 14:39:24;;;;;;;13.13;12.32;;;;;;;;;;4976646;28;20035;-66
2022/10/03 14:41:53;;;;;;;12.38;11.57;;;;;;;;;;4974604;28;20035;-66
2022/10/03 14:44:22;;;;;;;12.13;11.43;;;;;;;;;;4974679;28;20037;-66
2022/10/03 14:46:55;;;;;;;14.75;13.85;;;;;;;;;;4976522;28;20487;-66
2022/10/03 14:49:34;;;;;;;13.45;12.45;;;;;;;;;;4977908;28;20128;-66
2022/10/03 14:52:26;;;;;;;13.10;12.30;;;;;;;;;;4980063;28;20096;-67
2022/10/03 14:54:56;;;;;;;13.55;12.65;;;;;;;;;;4990490;28;20097;-67
2022/10/03 14:58:07;;;;;;;14.07;13.17;;;;;;;;;;4981939;28;20413;-67
2022/10/03 15:00:42;;;;;;;13.13;12.23;;;;;;;;;;4976589;28;20039;-67
2022/10/03 15:03:16;;;;;;;13.55;12.68;;;;;;;;;;4976699;28;20054;-66
2022/10/03 15:06:09;;;;;;;12.75;11.95;;;;;;;;;;4977940;28;20049;-66
2022/10/03 15:08:41;;;;;;;12.43;11.63;;;;;;;;;;4983690;28;20165;-66
2022/10/03 15:11:11;;;;;;;12.02;11.23;;;;;;;;;;4983273;28;20334;-66
2022/10/03 15:13:52;;;;;;;13.13;12.32;;;;;;;;;;4980981;28;20030;-66
2022/10/03 15:16:20;;;;;;;13.85;12.95;;;;;;;;;;4980431;28;20051;-67
2022/10/03 15:18:53;;;;;;;12.70;11.90;;;;;;;;;;4978434;28;20401;-66
2022/10/03 15:21:20;;;;;;;13.40;12.60;;;;;;;;;;4978227;28;20084;-66
2022/10/03 15:23:48;;;;;;;13.27;12.32;;;;;;;;;;4980133;28;20334;-66
2022/10/03 15:26:19;;;;;;;12.90;12.13;;;;;;;;;;4981445;28;20034;-65
2022/10/03 15:28:52;;;;;;;12.18;11.48;;;;;;;;;;4978940;28;20370;-66
2022/10/03 15:31:39;;;;;;;13.00;12.20;;;;;;;;;;4980325;28;20092;-66
2022/10/03 15:34:13;;;;;;;13.68;12.77;;;;;;;;;;4978755;28;20039;-66
2022/10/03 15:36:42;;;;;;;13.10;12.30;;;;;;;;;;4980544;28;20034;-66
2022/10/03 15:39:19;;;;;;;12.20;11.50;;;;;;;;;;4979644;28;20684;-65
2022/10/03 15:42:00;;;;;;;12.02;11.32;;;;;;;;;;4978190;28;20042;-66
2022/10/03 15:44:32;;;;;;;12.43;11.63;;;;;;;;;;4982121;28;20030;-66
2022/10/03 15:47:12;;;;;;;13.35;12.55;;;;;;;;;;4981503;28;20068;-66
2022/10/03 15:49:44;;;;;;;13.40;12.50;;;;;;;;;;4981108;28;20031;-66
2022/10/03 15:52:24;;;;;;;12.73;11.93;;;;;;;;;;4975095;28;20061;-66
2022/10/03 15:54:58;;;;;;;13.77;12.95;;;;;;;;;;4983417;28;20038;-66
2022/10/03 15:57:28;;;;;;;11.93;11.23;;;;;;;;;;4980245;28;20081;-66
2022/10/03 15:59:56;;;;;;;12.48;11.77;;;;;;;;;;4978950;28;20058;-66
2022/10/03 16:02:32;;;;;;;13.20;12.30;;;;;;;;;;4982472;28;20381;-66
2022/10/03 16:05:00;;;;;;;11.98;11.27;;;;;;;;;;4979426;28;20027;-66
2022/10/03 16:07:40;;;;;;;12.85;12.07;;;;;;;;;;4978522;28;20049;-66
2022/10/03 16:10:17;;;;;;;11.95;11.25;;;;;;;;;;4995446;28;20085;-66
2022/10/03 16:12:51;;;;;;;12.43;11.73;;;;;;;;;;4979032;28;20026;-66
2022/10/03 16:15:36;;;;;;;13.52;12.68;;;;;;;;;;4981691;28;20042;-66
2022/10/03 16:18:29;;;;;;;12.88;11.63;;;;;;;;;;4984274;28;20038;-66